createdAt,value
2022-12-31T00:01:44.793Z,36.10
2022-12-31T00:04:33.996Z,33.50
2022-12-31T00:07:23.159Z,37.07
2022-12-31T00:10:12.316Z,34.53
2022-12-31T00:13:01.264Z,35.27
2022-12-31T00:15:52.504Z,34.83
2022-12-31T00:18:45.430Z,34.40
2022-12-31T00:21:35.546Z,33.37
2022-12-31T00:24:24.481Z,36.73
2022-12-31T00:27:14.120Z,33.30
2022-12-31T00:30:04.938Z,35.23
2022-12-31T00:32:55.845Z,35.03
2022-12-31T00:35:45.115Z,33.87
2022-12-31T00:38:33.994Z,33.30
2022-12-31T00:41:24.070Z,36.07
2022-12-31T00:44:13.475Z,35.10
2022-12-31T00:47:02.517Z,34.30
2022-12-31T00:49:52.991Z,36.67
2022-12-31T00:52:41.865Z,35.37
2022-12-31T00:55:32.783Z,35.10
2022-12-31T00:58:21.759Z,35.47
2022-12-31T01:01:12.359Z,38.13
2022-12-31T01:04:04.168Z,36.50
2022-12-31T01:06:55.075Z,40.13
2022-12-31T01:09:44.371Z,35.13
2022-12-31T01:12:34.221Z,37.90
2022-12-31T01:15:23.262Z,35.20
2022-12-31T01:18:12.921Z,41.37
2022-12-31T01:21:04.051Z,37.77
2022-12-31T01:23:54.874Z,36.20
2022-12-31T01:26:44.623Z,35.37
2022-12-31T01:29:34.239Z,35.27
2022-12-31T01:32:23.363Z,35.30
2022-12-31T01:35:12.139Z,36.33
2022-12-31T01:38:01.279Z,34.97
2022-12-31T01:40:51.625Z,37.83
2022-12-31T01:43:47.471Z,34.40
2022-12-31T01:46:39.807Z,36.13
2022-12-31T01:49:33.771Z,36.53
2022-12-31T01:52:26.889Z,35.83
2022-12-31T01:55:21.835Z,32.80
2022-12-31T01:58:15.480Z,34.07
2022-12-31T02:01:05.133Z,34.17
2022-12-31T02:03:54.479Z,34.17
2022-12-31T02:06:47.097Z,33.60
2022-12-31T02:09:38.744Z,32.20
2022-12-31T02:12:28.100Z,31.73
2022-12-31T02:15:19.224Z,32.37
2022-12-31T02:18:16.100Z,31.73
2022-12-31T02:21:28.028Z,31.77
2022-12-31T02:24:56.429Z,31.50
2022-12-31T02:28:00.343Z,30.20
2022-12-31T02:30:55.192Z,31.33
2022-12-31T02:33:51.967Z,29.90
2022-12-31T02:36:44.692Z,29.83
2022-12-31T02:39:35.825Z,31.57
2022-12-31T02:42:24.554Z,29.30
2022-12-31T02:45:15.470Z,29.37
2022-12-31T02:48:26.631Z,28.70
2022-12-31T02:51:31.495Z,28.47
2022-12-31T02:54:30.882Z,28.77
2022-12-31T02:57:28.545Z,29.90
2022-12-31T03:00:36.385Z,28.77
2022-12-31T03:03:28.700Z,28.77
2022-12-31T03:06:19.381Z,27.73
2022-12-31T03:09:17.053Z,29.00
2022-12-31T03:12:24.491Z,27.00
2022-12-31T03:15:24.955Z,29.17
2022-12-31T03:18:15.771Z,27.17
2022-12-31T03:21:30.609Z,26.97
2022-12-31T03:24:36.692Z,27.77
2022-12-31T03:27:26.865Z,26.87
2022-12-31T03:30:17.610Z,24.67
2022-12-31T03:33:07.635Z,23.00
2022-12-31T03:35:56.103Z,23.37
2022-12-31T03:38:51.180Z,24.00
2022-12-31T03:41:41.679Z,24.67
2022-12-31T03:44:30.449Z,23.53
2022-12-31T03:47:19.813Z,24.27
2022-12-31T03:50:11.164Z,22.50
2022-12-31T03:53:00.185Z,20.70
2022-12-31T03:55:54.044Z,20.93
2022-12-31T03:58:43.363Z,21.30
2022-12-31T04:01:32.503Z,21.83
2022-12-31T04:04:21.954Z,20.67
2022-12-31T04:07:11.181Z,20.87
2022-12-31T04:10:00.562Z,21.57
2022-12-31T04:12:51.215Z,19.77
2022-12-31T04:15:40.013Z,19.07
2022-12-31T04:18:28.845Z,21.07
2022-12-31T04:21:17.912Z,20.33
2022-12-31T04:24:07.438Z,20.23
2022-12-31T04:26:59.647Z,19.77
2022-12-31T04:29:54.862Z,18.80
2022-12-31T04:32:44.246Z,18.83
2022-12-31T04:35:32.927Z,19.60
2022-12-31T04:38:22.379Z,17.90
2022-12-31T04:41:20.908Z,21.23
2022-12-31T04:44:10.404Z,19.47
2022-12-31T04:47:00.553Z,18.50
2022-12-31T04:49:49.314Z,20.10
2022-12-31T04:52:42.646Z,17.97
2022-12-31T04:55:32.226Z,19.50
2022-12-31T04:58:21.017Z,18.20
2022-12-31T05:01:11.210Z,17.37
2022-12-31T05:04:02.126Z,15.63
2022-12-31T05:06:51.163Z,17.33
2022-12-31T05:09:40.715Z,18.40
2022-12-31T05:12:29.846Z,17.40
2022-12-31T05:15:19.007Z,17.63
2022-12-31T05:18:09.103Z,16.87
2022-12-31T05:20:59.675Z,17.10
2022-12-31T05:23:49.277Z,16.63
2022-12-31T05:26:38.400Z,17.87
2022-12-31T05:29:27.366Z,17.17
2022-12-31T05:32:16.351Z,17.50
2022-12-31T05:35:05.638Z,17.07
2022-12-31T05:37:56.567Z,16.80
2022-12-31T05:40:45.670Z,17.60
2022-12-31T05:43:35.779Z,16.70
2022-12-31T05:46:24.980Z,16.73
2022-12-31T05:49:14.220Z,17.23
2022-12-31T05:52:03.256Z,17.57
2022-12-31T05:54:53.599Z,18.10
2022-12-31T05:57:43.079Z,16.60
2022-12-31T06:00:32.116Z,15.80
2022-12-31T06:03:21.247Z,16.43
2022-12-31T06:06:10.887Z,16.63
2022-12-31T06:09:00.139Z,16.20
2022-12-31T06:11:51.134Z,16.80
2022-12-31T06:14:45.387Z,17.23
2022-12-31T06:17:34.783Z,16.53
2022-12-31T06:20:23.660Z,17.97
2022-12-31T06:23:12.950Z,17.30
2022-12-31T06:26:03.453Z,16.90
2022-12-31T06:28:54.271Z,18.03
2022-12-31T06:31:43.386Z,17.23
2022-12-31T06:34:32.341Z,19.20
2022-12-31T06:37:21.390Z,15.90
2022-12-31T06:40:12.723Z,17.50
2022-12-31T06:43:02.466Z,18.20
2022-12-31T06:45:53.255Z,18.00
2022-12-31T06:48:44.865Z,16.73
2022-12-31T06:51:34.065Z,17.60
2022-12-31T06:54:23.529Z,16.57
2022-12-31T06:57:12.881Z,15.37
2022-12-31T07:00:02.417Z,15.80
2022-12-31T07:03:13.958Z,16.00
2022-12-31T07:06:10.467Z,16.17
2022-12-31T07:09:07.633Z,15.30
2022-12-31T07:12:02.350Z,15.87
2022-12-31T07:14:59.622Z,16.17
2022-12-31T07:17:58.271Z,13.82
2022-12-31T07:20:49.959Z,14.80
2022-12-31T07:23:39.397Z,14.67
2022-12-31T07:26:44.303Z,16.90
2022-12-31T07:29:46.552Z,14.93
2022-12-31T07:33:19.200Z,18.67
2022-12-31T07:36:23.265Z,19.87
2022-12-31T07:39:15.006Z,17.47
2022-12-31T07:42:14.909Z,20.20
2022-12-31T07:45:12.499Z,19.48
2022-12-31T07:48:03.045Z,20.70
2022-12-31T07:50:54.812Z,21.83
2022-12-31T07:53:45.041Z,25.03
2022-12-31T09:30:32.609Z,26.83
2022-12-31T09:33:36.095Z,27.45
2022-12-31T09:36:33.595Z,26.35
2022-12-31T09:39:32.858Z,26.60
2022-12-31T09:42:58.997Z,26.08
2022-12-31T09:46:10.056Z,27.67
2022-12-31T09:49:29.452Z,24.75
2022-12-31T09:52:27.200Z,24.95
2022-12-31T09:55:32.645Z,25.33
2022-12-31T09:58:34.499Z,25.17
2022-12-31T10:01:35.533Z,25.60
2022-12-31T10:04:53.736Z,23.08
2022-12-31T10:07:53.516Z,25.17
2022-12-31T10:10:52.183Z,25.95
2022-12-31T10:13:56.712Z,26.05
2022-12-31T10:16:57.894Z,27.73
2022-12-31T10:20:07.920Z,28.02
2022-12-31T10:23:25.748Z,26.85
2022-12-31T10:26:28.386Z,25.05
2022-12-31T10:29:29.354Z,25.90
2022-12-31T10:32:27.770Z,26.40
2022-12-31T10:35:32.981Z,22.63
2022-12-31T10:38:31.927Z,23.85
2022-12-31T10:42:03.561Z,28.05
2022-12-31T10:45:30.889Z,25.75
2022-12-31T10:49:03.893Z,24.73
2022-12-31T10:52:19.219Z,25.15
2022-12-31T10:55:49.095Z,25.83
2022-12-31T10:59:12.404Z,25.55
2022-12-31T11:02:18.970Z,23.92
2022-12-31T11:06:02.076Z,24.05
2022-12-31T11:09:10.068Z,24.67
2022-12-31T11:12:06.491Z,24.83
2022-12-31T11:15:15.904Z,23.38
2022-12-31T11:18:17.099Z,25.42
2022-12-31T11:21:26.264Z,23.55
2022-12-31T11:24:23.048Z,23.30
2022-12-31T11:27:44.817Z,22.30
2022-12-31T11:30:46.279Z,27.92
2022-12-31T11:33:50.647Z,22.58
2022-12-31T11:36:49.234Z,21.55
2022-12-31T11:39:51.119Z,20.30
2022-12-31T11:42:51.430Z,19.48
2022-12-31T11:46:11.710Z,19.58
2022-12-31T11:49:20.633Z,19.45
2022-12-31T11:52:29.829Z,20.48
2022-12-31T11:55:34.530Z,21.73
2022-12-31T11:58:29.181Z,22.33
2022-12-31T12:01:24.226Z,23.55
2022-12-31T12:04:14.392Z,25.33
2022-12-31T12:07:03.810Z,25.83
2022-12-31T12:09:57.728Z,25.13
2022-12-31T12:12:46.851Z,24.95
2022-12-31T12:15:37.756Z,27.20
2022-12-31T12:18:30.343Z,26.80
2022-12-31T12:21:22.557Z,25.73
2022-12-31T12:24:22.701Z,27.88
2022-12-31T12:27:25.532Z,28.52
2022-12-31T12:30:22.187Z,26.13
2022-12-31T12:33:18.881Z,27.70
2022-12-31T12:36:09.896Z,27.75
2022-12-31T12:39:03.832Z,27.52
2022-12-31T12:42:03.809Z,28.88
2022-12-31T12:45:06.047Z,26.77
2022-12-31T12:47:59.288Z,30.27
2022-12-31T12:50:50.077Z,31.48
2022-12-31T12:53:52.728Z,29.75
2022-12-31T12:56:50.941Z,27.83
2022-12-31T13:00:08.026Z,30.33
2022-12-31T13:03:31.195Z,28.55
2022-12-31T13:06:29.639Z,29.40
2022-12-31T13:09:33.828Z,29.70
2022-12-31T13:12:37.884Z,28.50
2022-12-31T13:15:47.721Z,27.58
2022-12-31T13:18:49.876Z,28.65
2022-12-31T13:21:46.221Z,27.90
2022-12-31T13:24:48.667Z,29.50
2022-12-31T13:27:40.438Z,29.75
2022-12-31T13:30:34.396Z,28.60
2022-12-31T13:33:27.727Z,27.10
2022-12-31T13:36:22.074Z,28.35
2022-12-31T13:39:20.683Z,27.77
2022-12-31T13:42:14.960Z,29.75
2022-12-31T13:45:12.731Z,28.83
2022-12-31T13:48:09.153Z,29.48
2022-12-31T13:51:10.660Z,28.83
2022-12-31T13:54:05.343Z,30.98
2022-12-31T13:56:54.950Z,31.63
2022-12-31T13:59:49.248Z,28.88
2022-12-31T14:02:46.447Z,37.90
2022-12-31T14:05:39.502Z,34.80
2022-12-31T14:08:30.496Z,32.20
2022-12-31T14:11:26.795Z,30.88
2022-12-31T14:14:25.592Z,29.90
2022-12-31T14:17:22.911Z,30.10
2022-12-31T14:20:24.807Z,29.58
2022-12-31T14:23:21.370Z,27.20
2022-12-31T14:26:21.343Z,30.27
2022-12-31T14:29:24.588Z,30.17
2022-12-31T14:32:38.893Z,29.13
2022-12-31T14:35:52.250Z,29.00
2022-12-31T14:38:53.953Z,29.73
2022-12-31T14:41:55.389Z,28.25
2022-12-31T14:44:55.426Z,27.02
2022-12-31T14:47:53.280Z,29.23
2022-12-31T14:50:45.215Z,27.75
2022-12-31T14:53:34.842Z,30.63
2022-12-31T14:56:32.124Z,30.00
2022-12-31T14:59:27.129Z,29.65
2022-12-31T15:02:28.932Z,28.08
2022-12-31T15:05:21.261Z,27.67
2022-12-31T15:08:41.784Z,30.67
2022-12-31T15:11:50.715Z,29.20
2022-12-31T15:15:07.796Z,27.98
2022-12-31T15:18:07.763Z,29.10
2022-12-31T15:21:19.149Z,29.45
2022-12-31T15:24:19.184Z,30.65
2022-12-31T15:27:23.940Z,30.50
2022-12-31T15:30:38.085Z,31.00
2022-12-31T15:33:32.999Z,31.65
2022-12-31T15:36:24.602Z,30.75
2022-12-31T15:39:29.739Z,32.50
2022-12-31T15:42:38.201Z,33.20
2022-12-31T15:45:33.731Z,31.45
2022-12-31T15:48:29.068Z,31.30
2022-12-31T15:51:21.802Z,31.23
2022-12-31T15:54:23.007Z,30.67
2022-12-31T15:57:18.611Z,30.98
2022-12-31T16:00:10.378Z,32.03
2022-12-31T16:03:00.182Z,32.03
2022-12-31T16:05:51.187Z,31.33
2022-12-31T16:08:42.292Z,30.63
2022-12-31T16:11:32.424Z,36.13
2022-12-31T16:14:24.529Z,35.03
2022-12-31T16:17:27.934Z,34.50
2022-12-31T16:20:24.619Z,31.85
2022-12-31T16:23:22.858Z,32.35
2022-12-31T16:26:12.721Z,36.53
2022-12-31T16:29:04.476Z,39.17
2022-12-31T16:31:55.323Z,34.53
2022-12-31T16:34:44.840Z,30.15
2022-12-31T16:37:33.411Z,30.45
2022-12-31T16:40:25.333Z,24.15
2022-12-31T16:43:28.557Z,29.92
2022-12-31T18:24:54.490Z,35.55
2022-12-31T18:27:43.566Z,31.40
2022-12-31T18:30:32.260Z,32.70
2022-12-31T18:33:25.306Z,31.25
2022-12-31T18:36:16.476Z,32.15
2022-12-31T18:39:05.555Z,31.70
2022-12-31T18:41:56.180Z,32.90
2022-12-31T18:44:46.060Z,31.58
2022-12-31T18:47:37.834Z,30.13
2022-12-31T18:50:27.570Z,31.50
2022-12-31T18:53:19.406Z,31.38
2022-12-31T18:56:12.297Z,32.53
2022-12-31T18:59:03.405Z,31.67
2022-12-31T19:01:52.430Z,31.45
2022-12-31T19:04:41.770Z,32.53
2022-12-31T19:07:30.717Z,32.55
2022-12-31T19:10:20.452Z,34.03
2022-12-31T19:13:11.717Z,31.77
2022-12-31T19:16:02.278Z,32.40
2022-12-31T19:18:51.366Z,32.67
2022-12-31T19:21:40.878Z,30.73
2022-12-31T19:24:29.804Z,33.67
2022-12-31T19:27:18.712Z,40.17
2022-12-31T19:30:12.932Z,40.17
2022-12-31T19:33:03.714Z,40.63
2022-12-31T19:35:52.605Z,35.13
2022-12-31T19:38:41.555Z,30.70
2022-12-31T19:41:30.278Z,30.65
2022-12-31T19:44:21.190Z,30.20
2022-12-31T19:47:14.121Z,30.63
2022-12-31T19:50:04.639Z,28.75
2022-12-31T19:52:56.703Z,29.67
2022-12-31T19:55:45.900Z,32.05
2022-12-31T19:58:34.911Z,32.42
2022-12-31T20:01:26.308Z,30.83
2022-12-31T20:04:15.979Z,30.13
2022-12-31T20:07:06.603Z,30.15
2022-12-31T20:09:55.659Z,31.25
2022-12-31T20:12:44.951Z,31.00
2022-12-31T20:15:34.447Z,31.90
2022-12-31T20:18:23.555Z,33.13
2022-12-31T20:21:13.835Z,29.98
2022-12-31T20:24:04.452Z,34.15
2022-12-31T20:26:53.816Z,33.95
2022-12-31T20:29:43.521Z,34.55
2022-12-31T20:32:33.048Z,32.45
2022-12-31T20:35:22.561Z,30.60
2022-12-31T20:38:11.446Z,31.42
2022-12-31T20:41:06.503Z,35.10
2022-12-31T20:43:55.820Z,33.05
2022-12-31T20:46:46.304Z,32.83
2022-12-31T20:50:09.658Z,36.60
2022-12-31T20:52:45.005Z,32.25
2022-12-31T20:55:34.005Z,32.50
2022-12-31T20:58:25.193Z,32.30
2022-12-31T21:01:15.485Z,31.88
2022-12-31T21:04:06.958Z,32.25
2022-12-31T21:06:56.569Z,32.33
2022-12-31T21:09:45.359Z,36.72
2022-12-31T21:12:53.251Z,34.20
2022-12-31T21:15:44.470Z,31.35
2022-12-31T21:18:33.672Z,32.40
2022-12-31T21:21:23.213Z,33.20
2022-12-31T21:24:12.662Z,33.47
2022-12-31T21:27:01.758Z,34.27
2022-12-31T21:30:17.594Z,33.13
2022-12-31T21:33:00.930Z,32.38
2022-12-31T21:35:53.874Z,33.17
2022-12-31T21:38:44.236Z,32.67
2022-12-31T21:41:50.524Z,34.45
2022-12-31T21:44:39.457Z,32.70
2022-12-31T21:47:47.720Z,32.92
2022-12-31T21:50:38.722Z,33.38
2022-12-31T21:53:34.244Z,33.72
2022-12-31T21:56:25.019Z,33.65
2022-12-31T21:59:31.010Z,35.65
2022-12-31T22:02:37.060Z,34.20
2022-12-31T22:05:26.119Z,32.97
2022-12-31T22:08:16.598Z,33.30
2022-12-31T22:11:06.195Z,33.67
2022-12-31T22:13:55.979Z,32.90
2022-12-31T22:16:45.151Z,32.50
2022-12-31T22:19:54.636Z,34.37
2022-12-31T22:22:43.514Z,34.22
2022-12-31T22:25:34.663Z,33.93
2022-12-31T22:28:40.040Z,34.47
2022-12-31T22:31:31.288Z,34.72
2022-12-31T22:34:21.168Z,34.75
2022-12-31T22:37:44.588Z,32.22
2022-12-31T22:40:20.389Z,32.93
2022-12-31T22:43:10.955Z,32.27
2022-12-31T22:45:59.803Z,33.13
2022-12-31T22:48:49.313Z,31.70
2022-12-31T22:51:55.266Z,30.57
2022-12-31T22:54:47.882Z,31.47
2022-12-31T22:57:37.524Z,34.03
2022-12-31T23:00:40.649Z,35.00
2022-12-31T23:03:29.622Z,34.87
2022-12-31T23:06:19.424Z,56.20
2022-12-31T23:09:26.044Z,57.57
2022-12-31T23:12:15.685Z,65.50
2022-12-31T23:15:21.811Z,50.97
2022-12-31T23:18:29.287Z,47.53
2022-12-31T23:21:35.133Z,45.77
2022-12-31T23:24:26.575Z,48.97
2022-12-31T23:27:16.032Z,47.08
2022-12-31T23:30:05.385Z,42.97
2022-12-31T23:32:54.352Z,44.73
2022-12-31T23:35:44.851Z,52.07
2022-12-31T23:38:34.071Z,51.13
2022-12-31T23:41:23.416Z,50.27
2022-12-31T23:44:13.443Z,54.87
2022-12-31T23:47:02.393Z,48.07
2022-12-31T23:49:51.560Z,46.35
2022-12-31T23:52:42.235Z,47.10
2022-12-31T23:55:31.793Z,44.23
2022-12-31T23:58:21.465Z,47.57
